Time;durP1;ratioP1;P1;durP2;ratioP2;P2;SDS_P1;SDS_P2;PMS_P1;PMS_P2;Temp;Humidity;BMP_temperature;BMP_pressure;BME280_temperature;BME280_humidity;BME280_pressure;Samples;Min_cycle;Max_cycle;Signal;HPM_P1;HPM_P2
2021/10/11 00:01:24;;;;;;;;;55.50;42.00;;;;;;;;1932875;30;86056839;-77
2021/10/11 00:03:49;;;;;;;;;71.00;56.25;;;;;;;;3281351;30;40500145;-77
2021/10/11 00:06:40;;;;;;;;;80.50;72.50;;;;;;;;1356497;30;18276123;-77
2021/10/11 00:09:27;;;;;;;;;;;;;;;;;;3;68049824;87977935;-76
2021/10/11 00:12:21;;;;;;;;;72.00;58.50;;;;;;;;17;7375794;11583319;-76
2021/10/11 00:15:08;;;;;;;;;65.50;49.50;;;;;;;;12;6149519;27041173;-77
2021/10/11 00:17:34;;;;;;;;;75.67;58.33;;;;;;;;1386546;30;11043937;-77
2021/10/11 00:19:59;;;;;;;;;68.33;53.33;;;;;;;;4682198;30;61007;-77
2021/10/11 00:22:24;;;;;;;;;76.75;59.00;;;;;;;;4615008;30;1264395;-77
2021/10/11 00:24:52;;;;;;;;;69.00;56.00;;;;;;;;4243142;30;6369759;-77
2021/10/11 00:27:17;;;;;;;;;68.00;52.75;;;;;;;;4680336;30;44768;-77
2021/10/11 00:29:43;;;;;;;;;80.75;67.25;;;;;;;;4695714;30;35751;-77
2021/10/11 00:32:09;;;;;;;;;76.00;63.75;;;;;;;;4689316;30;119624;-77
2021/10/11 00:35:32;;;;;;;;;58.50;47.50;;;;;;;;2689849;30;14543621;-77
2021/10/11 00:38:12;;;;;;;;;74.50;57.50;;;;;;;;162113;30;83000190;-77
2021/10/11 00:40:49;;;;;;;;;63.00;48.00;;;;;;;;14;7316824;14545091;-77
2021/10/11 00:43:27;;;;;;;;;65.00;48.50;;;;;;;;17;6566751;11254831;-77
2021/10/11 00:45:53;;;;;;;;;77.00;59.75;;;;;;;;2983688;30;10055428;-79
2021/10/11 00:48:18;;;;;;;;;70.25;55.25;;;;;;;;4694463;30;33087;-78
2021/10/11 00:50:44;;;;;;;;;74.25;58.00;;;;;;;;4696684;30;33601;-77
2021/10/11 00:53:10;;;;;;;;;80.75;71.00;;;;;;;;4686028;30;60813;-77
2021/10/11 00:55:35;;;;;;;;;73.25;56.25;;;;;;;;4683280;30;38516;-77
2021/10/11 00:58:01;;;;;;;;;73.50;55.25;;;;;;;;4682679;30;30236;-78
2021/10/11 01:00:26;;;;;;;;;73.67;55.33;;;;;;;;4668405;30;30039;-77
2021/10/11 01:02:51;;;;;;;;;71.75;56.50;;;;;;;;4694465;30;30353;-77
2021/10/11 01:05:17;;;;;;;;;69.25;53.50;;;;;;;;4668443;30;354765;-77
2021/10/11 01:07:43;;;;;;;;;72.50;56.50;;;;;;;;4655790;30;542821;-77
2021/10/11 01:10:10;;;;;;;;;69.00;53.50;;;;;;;;4344853;30;7414685;-77
2021/10/11 01:12:48;;;;;;;;;70.50;52.50;;;;;;;;3991974;30;9190071;-77
2021/10/11 01:15:23;;;;;;;;;69.00;54.50;;;;;;;;16;7878099;12274682;-77
2021/10/11 01:18:02;;;;;;;;;65.50;50.50;;;;;;;;15;8289716;12609397;-77
2021/10/11 01:20:32;;;;;;;;;75.50;57.50;;;;;;;;493408;30;13676874;-77
2021/10/11 01:22:57;;;;;;;;;76.33;59.00;;;;;;;;4533542;30;3028213;-77
2021/10/11 01:25:23;;;;;;;;;75.75;60.75;;;;;;;;4698106;30;38688;-77
2021/10/11 01:27:48;;;;;;;;;76.50;59.50;;;;;;;;4662561;30;566492;-77
2021/10/11 01:30:14;;;;;;;;;73.67;58.33;;;;;;;;4694668;30;30799;-77
2021/10/11 01:32:40;;;;;;;;;76.25;59.75;;;;;;;;4679101;30;103186;-77
2021/10/11 01:35:06;;;;;;;;;70.67;55.33;;;;;;;;4554620;30;3390881;-77
2021/10/11 01:37:31;;;;;;;;;74.75;57.25;;;;;;;;4673286;30;155523;-77
2021/10/11 01:40:10;;;;;;;;;56.50;44.00;;;;;;;;3075475;30;11935067;-77
2021/10/11 01:42:47;;;;;;;;;48.50;40.00;;;;;;;;14;9092041;13327093;-77
2021/10/11 01:45:32;;;;;;;;;63.00;49.00;;;;;;;;14;7382958;14344008;-77
2021/10/11 01:48:19;;;;;;;;;;;;;;;;;;255645;30;58253122;-77
2021/10/11 01:51:03;;;;;;;;;84.00;71.50;;;;;;;;15;8492900;12344538;-77
2021/10/11 01:53:29;;;;;;;;;87.67;80.00;;;;;;;;354533;30;20353284;-77
2021/10/11 01:56:16;;;;;;;;;92.00;78.50;;;;;;;;1617576;30;11073278;-76
2021/10/11 01:58:57;;;;;;;;;68.50;57.00;;;;;;;;66271;30;23978486;-77
2021/10/11 02:01:38;;;;;;;;;;;;;;;;;;695553;30;35453999;-77
2021/10/11 02:04:17;;;;;;;;;82.50;76.00;;;;;;;;18;7011694;10456611;-77
2021/10/11 02:07:05;;;;;;;;;76.50;63.50;;;;;;;;14;8318736;18484324;-77
2021/10/11 02:10:10;;;;;;;;;58.00;48.50;;;;;;;;10;10260151;25322718;-77
2021/10/11 02:13:58;;;;;;;;;;;;;;;;;;2;203023738;203023738;-77
2021/10/11 02:20:35;;;;;;;;;67.00;53.50;;;;;;;;8;19149975;28251363;-77
2021/10/11 02:25:53;;;;;;;;;;;;;;;;;;2;287723195;287723195;-77
2021/10/11 02:28:39;;;;;;;;;97.00;91.50;;;;;;;;303550;30;22501215;-77
2021/10/11 02:31:04;;;;;;;;;;;;;;;;;;207399;30;103667690;-77
2021/10/11 02:35:39;;;;;;;;;;;;;;;;;;409496;30;203007497;-77
2021/10/11 02:41:36;;;;;;;;;72.50;64.50;;;;;;;;10;11930320;26224392;-77
2021/10/11 02:49:31;;;;;;;;;;;;;;;;;;279590;30;215069548;-77
2021/10/11 02:54:20;;;;;;;;;51.50;43.50;;;;;;;;2;179733878;179733878;-77
2021/10/11 03:01:17;;;;;;;;;61.00;51.50;;;;;;;;9;17072118;43184995;-77
2021/10/11 03:08:26;;;;;;;;;;;;;;;;;;2;288087694;288087694;-78
2021/10/11 03:18:39;;;;;;;;;54.50;45.00;;;;;;;;4;26794898;201817831;-78
2021/10/11 03:26:03;;;;;;;;;;;;;;;;;;2;261078480;261078480;-78
2021/10/11 03:35:28;;;;;;;;;43.50;37.50;;;;;;;;2;285934135;285934135;-78
2021/10/11 03:42:48;;;;;;;;;72.50;55.00;;;;;;;;2;237583370;237583370;-77
2021/10/11 03:50:56;;;;;;;;;69.50;61.00;;;;;;;;2;245623942;245623942;-77
2021/10/11 03:58:03;;;;;;;;;58.50;45.50;;;;;;;;2;221661133;221661133;-77
2021/10/11 04:06:08;;;;;;;;;61.00;50.00;;;;;;;;2;247345499;247345499;-77
2021/10/11 04:13:27;;;;;;;;;51.50;43.50;;;;;;;;2;228059025;228059025;-77
2021/10/11 04:21:25;;;;;;;;;57.00;46.00;;;;;;;;2;245246805;245246805;-77
2021/10/11 04:28:26;;;;;;;;;60.00;44.50;;;;;;;;2;223117070;223117070;-77
2021/10/11 04:36:38;;;;;;;;;47.50;41.00;;;;;;;;2;252632823;252632823;-75
2021/10/11 04:43:54;;;;;;;;;46.00;39.00;;;;;;;;2;224623178;224623178;-78
2021/10/11 04:52:13;;;;;;;;;32.50;31.50;;;;;;;;2;256842623;256842623;-76
2021/10/11 04:59:14;;;;;;;;;41.50;36.00;;;;;;;;2;221110547;221110547;-76
2021/10/11 05:07:58;;;;;;;;;41.00;36.50;;;;;;;;2;263423374;263423374;-75
2021/10/11 05:15:31;;;;;;;;;20.00;18.50;;;;;;;;2;235801568;235801568;-75
2021/10/11 05:24:17;;;;;;;;;32.00;30.00;;;;;;;;2;269054241;269054241;-75
2021/10/11 05:31:58;;;;;;;;;44.00;29.50;;;;;;;;2;243976520;243976520;-75
2021/10/11 05:40:45;;;;;;;;;20.00;20.00;;;;;;;;2;266487398;266487398;-76
2021/10/11 05:48:21;;;;;;;;;19.50;19.50;;;;;;;;2;239770629;239770629;-76
2021/10/11 05:57:07;;;;;;;;;33.00;31.50;;;;;;;;2;266044653;266044653;-76
2021/10/11 06:04:45;;;;;;;;;34.00;32.00;;;;;;;;2;241530907;241530907;-80
2021/10/11 06:13:32;;;;;;;;;29.00;25.50;;;;;;;;2;266922472;266922472;-77
2021/10/11 06:21:13;;;;;;;;;39.00;35.50;;;;;;;;2;244264474;244264474;-79
2021/10/11 06:29:58;;;;;;;;;29.00;26.00;;;;;;;;2;267753672;267753672;-79
2021/10/11 06:37:31;;;;;;;;;24.50;24.50;;;;;;;;2;236851704;236851704;-79
2021/10/11 06:46:17;;;;;;;;;20.50;20.50;;;;;;;;2;267384543;267384543;-80
2021/10/11 06:53:53;;;;;;;;;21.50;21.50;;;;;;;;2;239175113;239175113;-81
2021/10/11 07:02:26;;;;;;;;;33.50;31.50;;;;;;;;2;262299612;262299612;-80
2021/10/11 07:09:58;;;;;;;;;32.50;31.00;;;;;;;;2;238087254;238087254;-79
2021/10/11 07:18:33;;;;;;;;;17.00;11.50;;;;;;;;2;263250231;263250231;-81
2021/10/11 07:26:07;;;;;;;;;16.50;16.50;;;;;;;;2;239723225;239723225;-79
2021/10/11 07:34:41;;;;;;;;;11.50;9.50;;;;;;;;2;260080208;260080208;-80
2021/10/11 07:42:22;;;;;;;;;17.50;14.50;;;;;;;;2;242856986;242856986;-80
2021/10/11 07:51:05;;;;;;;;;21.50;21.50;;;;;;;;2;265863780;265863780;-81
2021/10/11 07:58:43;;;;;;;;;20.00;20.00;;;;;;;;2;240938497;240938497;-80
2021/10/11 08:07:20;;;;;;;;;11.00;11.00;;;;;;;;2;262520421;262520421;-80
2021/10/11 08:14:56;;;;;;;;;15.50;15.50;;;;;;;;2;240058399;240058399;-81
2021/10/11 08:23:42;;;;;;;;;27.50;27.50;;;;;;;;2;265533577;265533577;-81
2021/10/11 08:31:17;;;;;;;;;15.50;15.50;;;;;;;;2;240186019;240186019;-80
2021/10/11 08:40:06;;;;;;;;;13.00;13.00;;;;;;;;2;269705900;269705900;-78
2021/10/11 08:47:45;;;;;;;;;21.50;17.50;;;;;;;;2;240922314;240922314;-79
2021/10/11 08:56:35;;;;;;;;;10.00;10.00;;;;;;;;2;269502568;269502568;-78
2021/10/11 09:04:22;;;;;;;;;6.00;6.00;;;;;;;;2;245653557;245653557;-78
2021/10/11 09:12:58;;;;;;;;;12.50;12.50;;;;;;;;2;264103583;264103583;-78
2021/10/11 09:20:25;;;;;;;;;17.50;17.50;;;;;;;;2;233866018;233866018;-79
2021/10/11 09:28:55;;;;;;;;;3.50;3.50;;;;;;;;2;253839917;253839917;-79
2021/10/11 09:36:04;;;;;;;;;13.00;13.00;;;;;;;;2;226976137;226976137;-78
2021/10/11 09:44:13;;;;;;;;;12.00;12.00;;;;;;;;2;249355524;249355524;-78
2021/10/11 09:51:33;;;;;;;;;31.00;26.00;;;;;;;;2;229537380;229537380;-78
2021/10/11 10:00:09;;;;;;;;;2.50;2.50;;;;;;;;2;258802936;258802936;-78
2021/10/11 10:07:36;;;;;;;;;6.00;2.00;;;;;;;;2;232501425;232501425;-78
2021/10/11 10:15:52;;;;;;;;;4.50;4.50;;;;;;;;2;248730708;248730708;-77
2021/10/11 10:23:31;;;;;;;;;6.50;6.50;;;;;;;;2;232044098;232044098;-77
2021/10/11 10:32:05;;;;;;;;;5.00;5.00;;;;;;;;2;256680102;256680102;-79
2021/10/11 10:39:39;;;;;;;;;9.50;9.50;;;;;;;;2;237488553;237488553;-78
2021/10/11 10:48:18;;;;;;;;;5.00;5.00;;;;;;;;2;264107408;264107408;-78
2021/10/11 10:55:50;;;;;;;;;4.00;4.00;;;;;;;;2;238141248;238141248;-77
2021/10/11 11:04:50;;;;;;;;;10.50;10.50;;;;;;;;2;264494992;264494992;-77
2021/10/11 11:12:28;;;;;;;;;3.50;3.50;;;;;;;;2;241523213;241523213;-77
2021/10/11 11:21:08;;;;;;;;;6.00;6.00;;;;;;;;2;266642269;266642269;-77
2021/10/11 11:28:29;;;;;;;;;11.00;11.00;;;;;;;;2;231694328;231694328;-78
2021/10/11 11:37:14;;;;;;;;;7.50;7.50;;;;;;;;2;263027918;263027918;-78
2021/10/11 11:44:59;;;;;;;;;4.00;4.00;;;;;;;;2;251127527;251127527;-77
2021/10/11 11:47:32;;;;;;;;;11.50;11.50;;;;;;;;2;152049909;152049909;-77
2021/10/11 11:55:31;;;;;;;;;7.50;7.50;;;;;;;;152228;30;246465094;-77
2021/10/11 12:04:29;;;;;;;;;2.00;2.00;;;;;;;;2;279045128;279045128;-77
2021/10/11 12:12:42;;;;;;;;;3.00;3.00;;;;;;;;3;128240813;228645290;-77
2021/10/11 12:20:56;;;;;;;;;;;;;;;;;;161517;30;260924673;-76
2021/10/11 12:30:10;;;;;;;;;5.50;5.50;;;;;;;;2;280595868;280595868;-77
2021/10/11 12:36:06;;;;;;;;;5.50;5.50;;;;;;;;2;191006018;191006018;-77
2021/10/11 12:45:10;;;;;;;;;7.00;7.00;;;;;;;;2;280820719;280820719;-77
2021/10/11 12:51:04;;;;;;;;;10.00;10.00;;;;;;;;2;257990536;257990536;-77
2021/10/11 12:53:30;;;;;;;;;8.67;6.33;;;;;;;;4322035;30;7704723;-77
2021/10/11 13:03:38;;;;;;;;;;;;;;;;;;3289540;30;261075921;-79
2021/10/11 13:13:06;;;;;;;;;1.00;1.00;;;;;;;;2;288080431;288080431;-79
2021/10/11 13:15:45;;;;;;;;;4.00;4.00;;;;;;;;2;158737563;158737563;-79
2021/10/11 13:24:16;;;;;;;;;3.50;3.50;;;;;;;;313813;30;261074774;-80
2021/10/11 15:59:55;;;;;;;;;8.50;8.50;;;;;;;;2;199237367;199237367;-79
2021/10/11 16:08:37;;;;;;;;;11.00;11.00;;;;;;;;2;268603712;268603712;-79
2021/10/11 16:17:04;;;;;;;;;5.00;5.00;;;;;;;;2;227560014;227560014;-79
2021/10/11 16:29:00;;;;;;;;;10.50;10.50;;;;;;;;2;270731092;270731092;-79
2021/10/11 16:37:23;;;;;;;;;10.50;10.50;;;;;;;;2;225697836;225697836;-79
2021/10/11 16:46:05;;;;;;;;;10.00;10.00;;;;;;;;2;268301565;268301565;-79
2021/10/11 16:54:33;;;;;;;;;2.50;2.50;;;;;;;;2;226936409;226936409;-78
2021/10/11 17:03:23;;;;;;;;;11.50;11.50;;;;;;;;2;273780002;273780002;-81
2021/10/11 17:11:55;;;;;;;;;7.50;7.50;;;;;;;;2;230135845;230135845;-80
2021/10/11 17:20:49;;;;;;;;;12.00;12.00;;;;;;;;2;275933149;275933149;-77
2021/10/11 17:29:23;;;;;;;;;5.00;5.00;;;;;;;;2;230558616;230558616;-77
2021/10/11 17:38:15;;;;;;;;;8.50;8.50;;;;;;;;2;275264603;275264603;-79
2021/10/11 17:46:48;;;;;;;;;12.00;12.00;;;;;;;;2;229497218;229497218;-78
2021/10/11 17:55:40;;;;;;;;;18.00;18.00;;;;;;;;2;273078647;273078647;-77
2021/10/11 18:04:19;;;;;;;;;14.50;14.50;;;;;;;;2;230721224;230721224;-77
2021/10/11 18:13:20;;;;;;;;;8.50;8.50;;;;;;;;2;279084239;279084239;-76
2021/10/11 18:22:02;;;;;;;;;17.00;17.00;;;;;;;;2;234072518;234072518;-77
2021/10/11 18:31:03;;;;;;;;;10.50;10.50;;;;;;;;2;279081632;279081632;-76
2021/10/11 18:39:46;;;;;;;;;14.00;11.00;;;;;;;;2;234074125;234074125;-76
2021/10/11 18:48:46;;;;;;;;;22.50;22.50;;;;;;;;2;279081795;279081795;-75
2021/10/11 18:57:29;;;;;;;;;9.50;9.50;;;;;;;;2;234073034;234073034;-76
2021/10/11 19:06:29;;;;;;;;;19.50;19.50;;;;;;;;2;279083155;279083155;-77
2021/10/11 19:15:12;;;;;;;;;14.50;14.50;;;;;;;;2;234072470;234072470;-77
2021/10/11 19:24:11;;;;;;;;;14.50;14.50;;;;;;;;2;277535126;277535126;-76
2021/10/11 19:32:54;;;;;;;;;12.50;12.50;;;;;;;;2;234069475;234069475;-76
2021/10/11 19:41:54;;;;;;;;;32.00;30.50;;;;;;;;2;279079818;279079818;-76
2021/10/11 19:50:37;;;;;;;;;17.00;17.00;;;;;;;;2;233955644;233955644;-76
2021/10/11 19:59:37;;;;;;;;;12.00;12.00;;;;;;;;2;279084481;279084481;-76
2021/10/11 20:08:20;;;;;;;;;9.00;9.00;;;;;;;;2;234071830;234071830;-76
2021/10/11 20:17:21;;;;;;;;;8.50;8.50;;;;;;;;2;279085355;279085355;-76
2021/10/11 20:26:04;;;;;;;;;3.50;3.50;;;;;;;;2;234069645;234069645;-77
2021/10/11 20:35:04;;;;;;;;;16.50;13.00;;;;;;;;2;279080305;279080305;-77
2021/10/11 20:43:47;;;;;;;;;9.50;6.50;;;;;;;;2;233935116;233935116;-76
2021/10/11 20:52:47;;;;;;;;;12.50;12.50;;;;;;;;2;279079097;279079097;-74
2021/10/11 21:01:30;;;;;;;;;3.00;3.00;;;;;;;;2;234072683;234072683;-75
2021/10/11 21:10:30;;;;;;;;;10.50;10.50;;;;;;;;2;279082024;279082024;-75
2021/10/11 21:19:14;;;;;;;;;10.50;10.50;;;;;;;;2;234070078;234070078;-74
2021/10/11 21:28:15;;;;;;;;;19.00;18.50;;;;;;;;2;279080270;279080270;-74
2021/10/11 21:36:57;;;;;;;;;20.00;20.00;;;;;;;;2;234068599;234068599;-74
2021/10/11 21:45:58;;;;;;;;;11.50;11.50;;;;;;;;2;279081931;279081931;-75
2021/10/11 21:54:40;;;;;;;;;13.00;13.00;;;;;;;;2;234070882;234070882;-74
2021/10/11 22:03:45;;;;;;;;;12.00;10.50;;;;;;;;2;279084348;279084348;-75
2021/10/11 22:12:28;;;;;;;;;23.00;23.00;;;;;;;;2;234067623;234067623;-75
2021/10/11 22:21:29;;;;;;;;;7.00;7.00;;;;;;;;2;279086402;279086402;-74
2021/10/11 22:30:12;;;;;;;;;32.00;30.00;;;;;;;;2;234073331;234073331;-74
2021/10/11 22:39:14;;;;;;;;;49.50;42.50;;;;;;;;2;279082255;279082255;-75
2021/10/11 22:47:57;;;;;;;;;55.50;46.50;;;;;;;;2;234069804;234069804;-75
2021/10/11 22:56:58;;;;;;;;;45.50;39.50;;;;;;;;2;279082566;279082566;-75
2021/10/11 23:05:43;;;;;;;;;41.00;36.50;;;;;;;;2;234018560;234018560;-75
2021/10/11 23:14:43;;;;;;;;;51.00;43.00;;;;;;;;2;279021625;279021625;-74
2021/10/11 23:23:24;;;;;;;;;52.00;44.00;;;;;;;;2;233621842;233621842;-75
2021/10/11 23:32:24;;;;;;;;;54.50;46.00;;;;;;;;2;278508676;278508676;-74
2021/10/11 23:41:06;;;;;;;;;40.00;36.00;;;;;;;;2;233178349;233178349;-74
2021/10/11 23:50:05;;;;;;;;;42.00;37.50;;;;;;;;2;278141177;278141177;-75
2021/10/11 23:58:44;;;;;;;;;28.50;27.00;;;;;;;;2;233266009;233266009;-74
